createdAt,value
2022-09-10T00:01:59.336Z,7.53
2022-09-10T00:04:26.541Z,7.28
2022-09-10T00:06:53.374Z,7.82
2022-09-10T00:09:20.114Z,7.45
2022-09-10T00:11:46.900Z,7.25
2022-09-10T00:14:17.847Z,7.32
2022-09-10T00:16:44.667Z,7.45
2022-09-10T00:19:11.586Z,8.50
2022-09-10T00:21:38.324Z,7.30
2022-09-10T00:24:05.533Z,8.85
2022-09-10T00:26:35.429Z,8.00
2022-09-10T00:29:02.194Z,8.68
2022-09-10T00:31:30.004Z,8.82
2022-09-10T00:33:57.993Z,7.60
2022-09-10T00:36:36.101Z,9.07
2022-09-10T00:39:05.180Z,9.60
2022-09-10T00:41:33.468Z,10.07
2022-09-10T00:44:01.063Z,9.77
2022-09-10T00:46:35.885Z,11.13
2022-09-10T00:49:06.043Z,9.20
2022-09-10T00:51:34.309Z,10.00
2022-09-10T00:54:01.401Z,10.40
2022-09-10T00:56:28.357Z,9.63
2022-09-10T00:58:55.109Z,9.32
2022-09-10T01:01:22.253Z,10.05
2022-09-10T01:03:49.669Z,8.93
2022-09-10T01:06:16.725Z,8.88
2022-09-10T01:08:43.441Z,8.05
2022-09-10T01:11:19.103Z,9.32
2022-09-10T01:14:05.236Z,8.50
2022-09-10T01:16:57.629Z,9.63
2022-09-10T01:19:41.385Z,8.77
2022-09-10T01:22:45.964Z,9.75
2022-09-10T01:25:33.939Z,8.10
2022-09-10T01:28:02.829Z,9.45
2022-09-10T01:30:32.247Z,9.65
2022-09-10T01:33:20.679Z,8.60
2022-09-10T01:35:58.793Z,8.60
2022-09-10T01:38:38.484Z,8.32
2022-09-10T01:41:05.574Z,8.55
2022-09-10T01:43:33.154Z,7.88
2022-09-10T01:46:30.077Z,9.20
2022-09-10T01:49:22.181Z,8.43
2022-09-10T01:52:15.180Z,7.45
2022-09-10T01:54:45.574Z,8.73
2022-09-10T01:57:27.728Z,8.65
2022-09-10T02:00:11.285Z,8.40
2022-09-10T02:03:00.657Z,8.90
2022-09-10T02:05:28.900Z,7.95
2022-09-10T02:07:59.034Z,9.13
2022-09-10T02:10:25.764Z,9.10
2022-09-10T02:12:52.483Z,8.02
2022-09-10T02:15:19.210Z,8.55
2022-09-10T02:17:46.575Z,8.70
2022-09-10T02:20:16.813Z,8.77
2022-09-10T02:22:48.054Z,9.20
2022-09-10T02:25:14.884Z,9.43
2022-09-10T02:27:43.415Z,9.90
2022-09-10T02:30:11.280Z,8.70
2022-09-10T02:32:37.972Z,10.07
2022-09-10T02:35:05.347Z,9.70
2022-09-10T02:37:32.045Z,9.20
2022-09-10T02:39:59.364Z,9.18
2022-09-10T02:42:26.998Z,9.25
2022-09-10T02:44:53.891Z,9.65
2022-09-10T02:47:20.602Z,8.57
2022-09-10T02:49:47.336Z,9.13
2022-09-10T02:52:14.074Z,9.35
2022-09-10T02:54:40.818Z,9.82
2022-09-10T02:57:07.767Z,10.45
2022-09-10T02:59:34.591Z,9.27
2022-09-10T03:02:01.344Z,10.68
2022-09-10T03:04:28.077Z,9.85
2022-09-10T03:06:55.469Z,9.40
2022-09-10T03:09:22.736Z,10.15
2022-09-10T03:11:50.530Z,9.50
2022-09-10T03:14:20.397Z,9.88
2022-09-10T03:16:47.730Z,10.02
2022-09-10T03:19:15.288Z,10.65
2022-09-10T03:21:42.178Z,10.57
2022-09-10T03:24:10.363Z,12.18
2022-09-10T03:26:37.179Z,12.70
2022-09-10T03:29:03.962Z,12.65
2022-09-10T03:31:31.107Z,12.15
2022-09-10T03:33:58.344Z,11.63
2022-09-10T03:36:25.218Z,12.07
2022-09-10T03:38:51.954Z,12.38
2022-09-10T03:41:18.919Z,13.82
2022-09-10T03:43:45.610Z,11.32
2022-09-10T03:46:12.406Z,12.10
2022-09-10T03:48:39.538Z,11.52
2022-09-10T03:51:06.637Z,11.38
2022-09-10T03:53:33.561Z,11.80
2022-09-10T03:56:00.295Z,11.23
2022-09-10T03:58:27.813Z,10.73
2022-09-10T04:00:54.529Z,11.25
2022-09-10T04:03:21.217Z,11.60
2022-09-10T04:05:48.088Z,10.93
2022-09-10T04:08:15.084Z,11.02
2022-09-10T04:10:42.309Z,10.80
2022-09-10T04:13:09.441Z,10.82
2022-09-10T04:15:37.257Z,12.15
2022-09-10T04:18:04.543Z,13.43
2022-09-10T04:20:31.324Z,12.55
2022-09-10T04:22:58.722Z,11.82
2022-09-10T04:25:25.537Z,12.18
2022-09-10T04:27:52.427Z,13.98
2022-09-10T04:30:19.475Z,12.98
2022-09-10T04:32:46.895Z,12.45
2022-09-10T04:35:15.455Z,12.63
2022-09-10T04:37:43.102Z,13.77
2022-09-10T04:40:10.317Z,13.77
2022-09-10T04:42:37.233Z,12.13
2022-09-10T04:45:04.587Z,12.57
2022-09-10T04:47:31.328Z,12.90
2022-09-10T04:49:58.216Z,13.75
2022-09-10T04:52:24.917Z,12.85
2022-09-10T04:54:51.574Z,11.65
2022-09-10T04:57:18.332Z,12.85
2022-09-10T04:59:45.021Z,11.63
2022-09-10T05:02:11.774Z,12.38
2022-09-10T05:04:39.983Z,12.07
2022-09-10T05:07:06.763Z,12.52
2022-09-10T05:09:34.724Z,11.07
2022-09-10T05:12:01.634Z,12.55
2022-09-10T05:14:29.356Z,12.00
2022-09-10T05:16:56.378Z,12.00
2022-09-10T05:19:23.133Z,11.85
2022-09-10T05:21:49.845Z,11.70
2022-09-10T05:24:16.757Z,12.30
2022-09-10T05:26:44.122Z,11.93
2022-09-10T05:29:11.485Z,12.98
2022-09-10T05:31:38.234Z,13.20
2022-09-10T05:34:05.128Z,12.32
2022-09-10T05:36:34.551Z,13.23
2022-09-10T05:39:03.456Z,13.73
2022-09-10T05:41:31.163Z,12.32
2022-09-10T05:43:58.497Z,11.82
2022-09-10T05:46:25.388Z,11.93
2022-09-10T05:48:54.272Z,12.38
2022-09-10T05:51:21.532Z,10.85
2022-09-10T05:53:48.400Z,11.07
2022-09-10T05:56:15.087Z,11.02
2022-09-10T05:58:41.800Z,12.18
2022-09-10T06:01:08.545Z,12.35
2022-09-10T06:03:35.220Z,11.73
2022-09-10T06:06:01.919Z,11.25
2022-09-10T06:08:28.608Z,11.68
2022-09-10T06:10:57.139Z,11.93
2022-09-10T06:13:24.971Z,13.00
2022-09-10T06:15:52.101Z,11.57
2022-09-10T06:18:18.936Z,13.68
2022-09-10T06:20:47.712Z,12.23
2022-09-10T06:23:16.524Z,13.13
2022-09-10T06:25:44.518Z,13.23
2022-09-10T06:28:12.608Z,13.07
2022-09-10T06:30:39.625Z,12.57
2022-09-10T06:33:06.689Z,13.32
2022-09-10T06:35:33.450Z,13.27
2022-09-10T06:38:00.199Z,13.02
2022-09-10T06:40:27.739Z,13.23
2022-09-10T06:42:54.786Z,14.75
2022-09-10T06:45:21.597Z,14.48
2022-09-10T06:50:35.381Z,12.43
2022-09-10T06:53:02.086Z,13.10
2022-09-10T06:55:28.774Z,13.30
2022-09-10T06:57:55.433Z,12.10
2022-09-10T07:00:22.213Z,13.00
2022-09-10T07:02:50.617Z,12.20
2022-09-10T07:05:17.361Z,12.00
2022-09-10T07:07:44.067Z,12.23
2022-09-10T07:10:10.799Z,12.13
2022-09-10T07:12:37.511Z,12.40
2022-09-10T07:15:04.596Z,12.75
2022-09-10T07:17:34.431Z,13.43
2022-09-10T07:20:01.302Z,11.88
2022-09-10T07:22:28.034Z,12.25
2022-09-10T07:24:55.307Z,11.02
2022-09-10T07:27:22.046Z,12.05
2022-09-10T07:29:49.377Z,10.82
2022-09-10T07:32:16.140Z,13.32
2022-09-10T07:34:43.332Z,12.52
2022-09-10T07:37:10.211Z,12.45
2022-09-10T07:39:38.027Z,13.73
2022-09-10T07:42:05.404Z,13.43
2022-09-10T07:44:32.081Z,13.30
2022-09-10T07:46:59.210Z,13.70
2022-09-10T07:49:27.816Z,12.80
2022-09-10T07:51:59.645Z,13.48
2022-09-10T07:54:28.468Z,13.48
2022-09-10T07:56:55.172Z,13.45
2022-09-10T07:59:21.899Z,12.38
2022-09-10T08:01:49.951Z,13.57
2022-09-10T08:04:16.800Z,13.75
2022-09-10T08:06:44.083Z,13.48
2022-09-10T08:09:11.387Z,14.13
2022-09-10T08:11:40.221Z,12.65
2022-09-10T08:14:07.046Z,13.45
2022-09-10T08:16:36.104Z,13.68
2022-09-10T08:19:02.892Z,12.27
2022-09-10T08:21:32.286Z,14.23
2022-09-10T08:23:59.094Z,14.70
2022-09-10T08:26:26.293Z,14.25
2022-09-10T08:28:54.049Z,13.30
2022-09-10T08:31:22.172Z,12.75
2022-09-10T08:33:50.583Z,12.50
2022-09-10T08:36:18.284Z,12.18
2022-09-10T08:38:45.265Z,11.98
2022-09-10T08:41:25.675Z,12.40
2022-09-10T08:43:56.336Z,12.88
2022-09-10T08:46:24.944Z,11.60
2022-09-10T08:48:55.320Z,12.43
2022-09-10T08:51:27.522Z,11.73
2022-09-10T08:53:56.391Z,11.30
2022-09-10T08:56:23.479Z,11.57
2022-09-10T08:59:03.667Z,12.25
2022-09-10T09:01:36.899Z,11.43
2022-09-10T09:04:09.073Z,11.50
2022-09-10T09:06:59.023Z,12.25
2022-09-10T09:09:25.875Z,10.27
2022-09-10T09:12:01.759Z,11.82
2022-09-10T09:14:41.150Z,10.50
2022-09-10T09:17:21.133Z,11.43
2022-09-10T09:20:08.952Z,10.75
2022-09-10T09:22:56.603Z,10.98
2022-09-10T09:25:50.809Z,10.15
2022-09-10T09:30:49.543Z,9.60
2022-09-10T09:33:18.700Z,10.80
2022-09-10T09:35:57.102Z,10.27
2022-09-10T09:38:28.902Z,10.60
2022-09-10T09:40:56.490Z,10.82
2022-09-10T09:43:38.753Z,11.95
2022-09-10T09:46:06.909Z,11.10
2022-09-10T09:48:37.886Z,11.43
2022-09-10T09:51:04.699Z,11.00
2022-09-10T09:53:31.498Z,10.90
2022-09-10T09:56:00.167Z,9.50
2022-09-10T09:58:28.885Z,9.82
2022-09-10T10:01:05.176Z,10.55
2022-09-10T10:03:37.660Z,9.43
2022-09-10T10:06:08.600Z,10.07
2022-09-10T10:08:41.346Z,9.73
2022-09-10T10:11:08.520Z,8.68
2022-09-10T10:13:39.198Z,8.07
2022-09-10T10:16:15.819Z,7.97
2022-09-10T10:18:43.445Z,7.85
2022-09-10T10:21:33.329Z,7.07
2022-09-10T10:24:00.942Z,8.20
2022-09-10T10:26:33.130Z,6.78
2022-09-10T10:29:06.337Z,7.10
2022-09-10T10:31:49.160Z,6.15
2022-09-10T10:34:41.482Z,5.53
2022-09-10T10:37:24.952Z,7.40
2022-09-10T10:40:08.851Z,6.53
2022-09-10T10:46:01.449Z,6.40
2022-09-10T10:48:57.975Z,5.00
2022-09-10T10:51:59.888Z,5.15
2022-09-10T10:54:58.964Z,6.07
2022-09-10T10:57:40.816Z,5.70
2022-09-10T11:00:17.767Z,3.97
2022-09-10T11:03:21.329Z,3.75
2022-09-10T11:05:59.129Z,3.30
2022-09-10T11:08:48.835Z,3.30
2022-09-10T11:11:26.400Z,2.50
2022-09-10T11:13:56.738Z,2.70
2022-09-10T11:16:28.728Z,3.38
2022-09-10T11:19:35.703Z,2.30
2022-09-10T11:22:13.513Z,3.47
2022-09-10T11:25:00.484Z,3.10
2022-09-10T11:27:31.315Z,2.67
2022-09-10T11:30:06.581Z,2.63
2022-09-10T11:32:52.602Z,2.92
2022-09-10T11:35:23.590Z,2.65
2022-09-10T11:38:12.863Z,3.08
2022-09-10T11:40:42.502Z,3.08
2022-09-10T11:43:12.303Z,2.55
2022-09-10T11:45:55.567Z,1.98
2022-09-10T11:48:30.195Z,2.53
2022-09-10T11:51:06.678Z,2.30
2022-09-10T11:53:34.249Z,6.93
2022-09-10T11:56:07.236Z,3.08
2022-09-10T11:58:42.805Z,2.13
2022-09-10T12:01:49.351Z,2.38
2022-09-10T12:07:07.846Z,2.60
2022-09-10T12:10:14.341Z,2.05
2022-09-10T12:12:46.333Z,2.30
2022-09-10T12:15:25.216Z,2.10
2022-09-10T12:18:14.403Z,2.85
2022-09-10T12:20:48.753Z,2.08
2022-09-10T12:23:35.504Z,2.45
2022-09-10T12:26:18.073Z,2.92
2022-09-10T12:29:00.636Z,3.22
2022-09-10T12:31:27.982Z,3.03
2022-09-10T12:33:54.725Z,2.80
2022-09-10T12:36:27.401Z,2.63
2022-09-10T12:39:23.330Z,2.23
2022-09-10T12:41:50.107Z,3.00
2022-09-10T12:44:35.186Z,2.45
2022-09-10T12:47:14.094Z,2.45
2022-09-10T12:49:57.282Z,2.30
2022-09-10T12:52:48.845Z,2.28
2022-09-10T12:55:36.690Z,2.28
2022-09-10T12:58:39.856Z,2.03
2022-09-10T13:01:26.345Z,2.05
2022-09-10T13:03:56.135Z,2.38
2022-09-10T13:06:40.276Z,1.80
2022-09-10T13:09:25.791Z,1.98
2022-09-10T13:11:54.226Z,1.83
2022-09-10T13:14:26.187Z,2.85
2022-09-10T13:16:53.239Z,2.22
2022-09-10T13:19:19.929Z,2.60
2022-09-10T13:21:51.071Z,2.08
2022-09-10T13:25:00.205Z,2.03
2022-09-10T13:27:42.955Z,2.38
2022-09-10T13:30:20.049Z,2.15
2022-09-10T13:32:49.796Z,2.17
2022-09-10T13:35:17.198Z,2.50
2022-09-10T13:38:06.968Z,2.47
2022-09-10T13:40:39.993Z,1.92
2022-09-10T13:43:21.387Z,1.80
2022-09-10T13:45:58.876Z,1.80
2022-09-10T13:48:27.553Z,2.97
2022-09-10T13:50:58.588Z,2.42
2022-09-10T13:53:26.417Z,1.98
2022-09-10T13:55:59.990Z,2.67
2022-09-10T13:58:28.878Z,2.28
2022-09-10T14:01:03.421Z,2.92
2022-09-10T14:03:34.714Z,2.58
2022-09-10T14:06:12.140Z,1.95
2022-09-10T14:08:45.087Z,2.03
2022-09-10T14:11:11.803Z,1.58
2022-09-10T14:13:59.641Z,2.55
2022-09-10T14:16:33.669Z,2.00
2022-09-10T14:19:03.089Z,2.40
2022-09-10T14:21:29.943Z,1.83
2022-09-10T14:23:59.065Z,2.33
2022-09-10T14:26:30.388Z,2.22
2022-09-10T14:29:01.770Z,1.30
2022-09-10T14:31:36.770Z,2.45
2022-09-10T14:34:26.239Z,1.63
2022-09-10T14:36:52.983Z,1.70
2022-09-10T14:39:20.976Z,2.50
2022-09-10T14:41:48.143Z,1.42
2022-09-10T14:44:28.328Z,1.20
2022-09-10T14:46:57.467Z,1.20
2022-09-10T14:49:26.623Z,1.88
2022-09-10T14:51:53.690Z,1.77
2022-09-10T14:54:20.721Z,1.75
2022-09-10T14:56:47.717Z,1.60
2022-09-10T14:59:26.276Z,1.30
2022-09-10T15:01:53.314Z,1.40
2022-09-10T15:04:26.712Z,1.75
2022-09-10T15:07:00.096Z,2.10
2022-09-10T15:09:35.432Z,1.42
2022-09-10T15:12:05.768Z,1.42
2022-09-10T15:14:33.482Z,1.75
2022-09-10T15:17:00.383Z,1.58
2022-09-10T15:19:27.949Z,1.77
2022-09-10T15:21:54.809Z,2.00
2022-09-10T15:24:22.908Z,1.60
2022-09-10T15:26:49.800Z,1.83
2022-09-10T15:29:17.773Z,2.08
2022-09-10T15:31:44.606Z,1.98
2022-09-10T15:34:11.503Z,1.60
2022-09-10T15:36:40.317Z,1.63
2022-09-10T15:39:07.556Z,2.95
2022-09-10T15:41:34.612Z,2.05
2022-09-10T15:44:02.439Z,1.95
2022-09-10T15:46:29.548Z,1.58
2022-09-10T15:49:00.040Z,1.90
2022-09-10T15:51:26.962Z,1.95
2022-09-10T15:53:53.993Z,2.08
2022-09-10T15:56:23.220Z,2.08
2022-09-10T15:58:57.715Z,2.05
2022-09-10T16:01:25.788Z,1.67
2022-09-10T16:03:57.191Z,2.15
2022-09-10T16:06:27.361Z,2.33
2022-09-10T16:09:00.886Z,2.15
2022-09-10T16:11:31.574Z,1.73
2022-09-10T16:14:05.200Z,2.15
2022-09-10T16:16:32.176Z,2.25
2022-09-10T16:19:00.463Z,1.98
2022-09-10T16:21:31.208Z,1.50
2022-09-10T16:23:59.137Z,2.05
2022-09-10T16:26:27.842Z,2.15
2022-09-10T16:28:56.270Z,1.77
2022-09-10T16:31:50.149Z,2.50
2022-09-10T16:34:18.605Z,2.15
2022-09-10T16:36:46.205Z,2.35
2022-09-10T16:39:14.976Z,2.70
2022-09-10T16:41:43.689Z,2.38
2022-09-10T16:44:11.148Z,2.40
2022-09-10T16:46:38.498Z,2.50
2022-09-10T16:49:05.897Z,2.30
2022-09-10T16:51:33.757Z,2.70
2022-09-10T16:54:04.539Z,2.25
2022-09-10T16:56:34.907Z,2.17
2022-09-10T16:59:07.495Z,2.30
2022-09-10T17:01:35.743Z,2.77
2022-09-10T17:04:09.475Z,2.10
2022-09-10T17:06:36.821Z,3.22
2022-09-10T17:09:03.779Z,2.75
2022-09-10T17:11:31.406Z,2.40
2022-09-10T17:13:58.880Z,2.83
2022-09-10T17:16:32.628Z,2.70
2022-09-10T17:19:12.712Z,2.78
2022-09-10T17:21:40.373Z,2.67
2022-09-10T17:24:08.877Z,2.63
2022-09-10T17:26:37.230Z,2.60
2022-09-10T17:29:06.251Z,2.72
2022-09-10T17:31:33.050Z,2.58
2022-09-10T17:34:00.935Z,2.80
2022-09-10T17:36:28.220Z,3.10
2022-09-10T17:38:56.690Z,3.42
2022-09-10T17:41:23.963Z,2.70
2022-09-10T17:43:51.104Z,2.15
2022-09-10T17:46:19.845Z,3.15
2022-09-10T17:48:47.783Z,3.30
2022-09-10T17:51:18.728Z,2.90
2022-09-10T17:53:46.183Z,4.80
2022-09-10T17:56:14.224Z,2.53
2022-09-10T17:58:41.210Z,2.50
2022-09-10T18:01:12.718Z,2.10
2022-09-10T18:03:40.049Z,2.63
2022-09-10T18:06:11.506Z,2.67
2022-09-10T18:08:39.004Z,2.05
2022-09-10T18:11:11.415Z,2.30
2022-09-10T18:13:38.216Z,2.00
2022-09-10T18:16:24.762Z,2.55
2022-09-10T18:19:08.159Z,2.42
2022-09-10T18:21:38.080Z,2.40
2022-09-10T18:24:04.895Z,2.70
2022-09-10T18:26:33.497Z,2.00
2022-09-10T18:29:02.764Z,2.30
2022-09-10T18:31:34.306Z,2.45
2022-09-10T18:34:01.454Z,2.25
2022-09-10T18:36:31.557Z,2.63
2022-09-10T18:39:01.795Z,1.88
2022-09-10T18:41:31.121Z,2.72
2022-09-10T18:43:59.513Z,2.47
2022-09-10T18:46:26.685Z,2.40
2022-09-10T18:48:53.465Z,2.30
2022-09-10T18:51:22.623Z,2.58
2022-09-10T18:53:55.420Z,2.40
2022-09-10T18:56:25.520Z,2.58
2022-09-10T18:58:54.473Z,3.40
2022-09-10T19:01:21.543Z,2.67
2022-09-10T19:03:48.658Z,2.47
2022-09-10T19:06:26.564Z,2.00
2022-09-10T19:09:07.278Z,2.67
2022-09-10T19:11:39.549Z,1.92
2022-09-10T19:14:11.217Z,2.28
2022-09-10T19:16:38.134Z,2.20
2022-09-10T19:19:06.007Z,2.35
2022-09-10T19:21:35.308Z,2.15
2022-09-10T19:24:02.463Z,3.00
2022-09-10T19:26:31.592Z,2.60
2022-09-10T19:28:59.014Z,2.53
2022-09-10T19:31:26.480Z,2.58
2022-09-10T19:34:01.344Z,3.08
2022-09-10T19:36:30.357Z,3.30
2022-09-10T19:38:57.393Z,4.97
2022-09-10T19:41:25.592Z,6.10
2022-09-10T19:43:53.360Z,5.80
2022-09-10T19:46:21.162Z,7.13
2022-09-10T19:48:48.085Z,6.28
2022-09-10T19:51:16.577Z,5.07
2022-09-10T19:53:43.424Z,4.68
2022-09-10T19:56:11.907Z,4.18
2022-09-10T19:58:38.673Z,4.38
2022-09-10T20:01:15.585Z,4.13
2022-09-10T20:03:44.685Z,6.05
2022-09-10T20:06:12.539Z,5.55
2022-09-10T20:08:39.734Z,7.53
2022-09-10T20:11:07.543Z,6.75
2022-09-10T20:13:35.087Z,8.13
2022-09-10T20:16:06.073Z,9.23
2022-09-10T20:18:34.109Z,8.65
2022-09-10T20:21:14.296Z,8.38
2022-09-10T20:23:46.246Z,8.05
2022-09-10T20:26:14.257Z,9.40
2022-09-10T20:28:41.256Z,11.95
2022-09-10T20:31:09.157Z,13.90
2022-09-10T20:33:39.948Z,14.65
2022-09-10T20:36:10.774Z,13.55
2022-09-10T20:38:38.340Z,11.07
2022-09-10T20:41:05.875Z,10.93
2022-09-10T20:43:32.837Z,8.55
2022-09-10T20:45:59.718Z,7.45
2022-09-10T20:48:26.521Z,7.50
2022-09-10T20:50:57.373Z,6.55
2022-09-10T20:53:24.584Z,5.88
2022-09-10T20:55:51.574Z,6.00
2022-09-10T20:58:19.065Z,6.25
2022-09-10T21:00:45.790Z,5.18
2022-09-10T21:03:12.944Z,6.20
2022-09-10T21:05:39.778Z,6.10
2022-09-10T21:08:09.635Z,7.28
2022-09-10T21:10:37.583Z,7.30
2022-09-10T21:13:04.939Z,7.10
2022-09-10T21:15:31.756Z,6.93
2022-09-10T21:17:58.515Z,7.03
2022-09-10T21:20:25.323Z,7.60
2022-09-10T21:22:52.138Z,6.90
2022-09-10T21:25:19.236Z,6.80
2022-09-10T21:27:46.868Z,7.70
2022-09-10T21:30:13.733Z,6.38
2022-09-10T21:32:40.725Z,7.57
2022-09-10T21:35:07.859Z,7.13
2022-09-10T21:37:34.703Z,8.77
2022-09-10T21:40:02.260Z,7.00
2022-09-10T21:42:29.247Z,7.40
2022-09-10T21:44:56.032Z,8.15
2022-09-10T21:47:23.191Z,8.63
2022-09-10T21:49:50.008Z,7.60
2022-09-10T21:52:16.757Z,7.95
2022-09-10T21:54:43.514Z,7.10
2022-09-10T21:57:11.787Z,7.22
2022-09-10T21:59:39.288Z,7.28
2022-09-10T22:02:06.144Z,7.15
2022-09-10T22:04:33.015Z,8.00
2022-09-10T22:07:00.266Z,7.53
2022-09-10T22:09:27.163Z,7.50
2022-09-10T22:11:55.379Z,6.82
2022-09-10T22:14:23.558Z,6.65
2022-09-10T22:16:50.841Z,8.52
2022-09-10T22:19:19.705Z,11.13
2022-09-10T22:21:47.106Z,13.23
2022-09-10T22:24:14.911Z,11.65
2022-09-10T22:26:43.364Z,9.32
2022-09-10T22:29:10.602Z,8.27
2022-09-10T22:31:38.114Z,7.95
2022-09-10T22:34:06.569Z,8.23
2022-09-10T22:36:35.023Z,9.00
2022-09-10T22:39:06.180Z,7.38
2022-09-10T22:41:34.324Z,8.88
2022-09-10T22:44:02.122Z,7.82
2022-09-10T22:46:30.838Z,8.07
2022-09-10T22:48:57.715Z,8.07
2022-09-10T22:51:26.752Z,7.80
2022-09-10T22:53:55.538Z,6.07
2022-09-10T22:56:22.763Z,6.45
2022-09-10T22:58:52.593Z,6.75
2022-09-10T23:01:20.714Z,7.10
2022-09-10T23:03:48.487Z,7.22
2022-09-10T23:06:18.098Z,6.20
2022-09-10T23:08:46.901Z,6.45
2022-09-10T23:11:19.314Z,6.50
2022-09-10T23:13:47.717Z,6.68
2022-09-10T23:16:15.809Z,8.18
2022-09-10T23:18:42.874Z,6.32
2022-09-10T23:21:09.912Z,6.57
2022-09-10T23:23:36.694Z,7.45
2022-09-10T23:26:10.082Z,6.70
2022-09-10T23:28:37.233Z,6.43
2022-09-10T23:31:13.916Z,6.28
2022-09-10T23:33:45.160Z,6.47
2022-09-10T23:36:13.235Z,6.25
2022-09-10T23:38:41.050Z,5.45
2022-09-10T23:41:08.761Z,6.55
2022-09-10T23:43:35.800Z,6.03
2022-09-10T23:46:02.548Z,6.85
2022-09-10T23:48:29.880Z,7.22
2022-09-10T23:50:57.283Z,6.25
2022-09-10T23:53:25.264Z,6.50
2022-09-10T23:55:52.016Z,6.57
2022-09-10T23:58:19.906Z,6.85
